createdAt,value
2022-12-11T00:01:19.830Z,88.37
2022-12-11T00:03:48.551Z,88.28
2022-12-11T00:06:22.841Z,88.01
2022-12-11T00:08:55.261Z,87.88
2022-12-11T00:11:30.148Z,88.41
2022-12-11T00:14:16.548Z,87.38
2022-12-11T00:16:48.608Z,87.49
2022-12-11T00:19:19.666Z,87.15
2022-12-11T00:21:56.729Z,88.05
2022-12-11T00:24:27.608Z,88.30
2022-12-11T00:27:08.560Z,87.60
2022-12-11T00:29:39.702Z,87.94
2022-12-11T00:32:15.192Z,87.51
2022-12-11T00:34:44.502Z,86.85
2022-12-11T00:37:15.936Z,87.38
2022-12-11T00:39:46.740Z,86.83
2022-12-11T00:42:14.938Z,87.85
2022-12-11T00:44:42.781Z,87.83
2022-12-11T00:47:12.934Z,87.26
2022-12-11T00:49:50.016Z,87.18
2022-12-11T00:52:18.318Z,87.11
2022-12-11T00:54:46.829Z,86.66
2022-12-11T00:57:18.400Z,86.60
2022-12-11T00:59:45.699Z,86.55
2022-12-11T01:02:15.206Z,86.78
2022-12-11T01:04:42.525Z,87.21
2022-12-11T01:07:12.309Z,87.05
2022-12-11T01:09:59.882Z,86.76
2022-12-11T01:12:41.675Z,86.98
2022-12-11T01:15:17.895Z,86.66
2022-12-11T01:17:56.406Z,86.84
2022-12-11T01:20:29.608Z,86.21
2022-12-11T01:23:01.240Z,86.80
2022-12-11T01:25:42.701Z,86.68
2022-12-11T01:28:26.832Z,86.50
2022-12-11T01:31:16.945Z,86.54
2022-12-11T01:34:01.789Z,86.15
2022-12-11T01:36:34.083Z,86.42
2022-12-11T01:39:10.678Z,86.61
2022-12-11T01:41:45.067Z,86.59
2022-12-11T01:44:24.474Z,86.64
2022-12-11T01:46:57.188Z,86.45
2022-12-11T01:49:40.690Z,86.57
2022-12-11T01:52:21.380Z,86.80
2022-12-11T01:55:03.909Z,87.03
2022-12-11T01:57:38.810Z,86.87
2022-12-11T02:00:12.898Z,86.10
2022-12-11T02:02:43.372Z,86.53
2022-12-11T02:05:13.890Z,86.57
2022-12-11T02:07:46.589Z,87.16
2022-12-11T02:10:18.582Z,86.99
2022-12-11T02:12:59.511Z,86.51
2022-12-11T02:15:35.716Z,86.03
2022-12-11T02:18:14.687Z,86.48
2022-12-11T02:20:54.366Z,86.51
2022-12-11T02:23:52.332Z,86.46
2022-12-11T02:26:24.175Z,86.29
2022-12-11T02:28:55.262Z,86.31
2022-12-11T02:31:29.749Z,86.44
2022-12-11T02:34:22.244Z,86.39
2022-12-11T02:36:51.343Z,86.55
2022-12-11T02:39:24.220Z,86.32
2022-12-11T02:41:54.973Z,86.51
2022-12-11T02:44:29.417Z,86.54
2022-12-11T02:47:08.354Z,86.14
2022-12-11T02:49:40.167Z,86.39
2022-12-11T02:52:17.022Z,86.28
2022-12-11T02:54:47.507Z,86.38
2022-12-11T02:57:18.736Z,86.47
2022-12-11T02:59:50.103Z,86.93
2022-12-11T03:02:20.292Z,86.96
2022-12-11T03:04:51.673Z,86.46
2022-12-11T03:07:31.563Z,86.22
2022-12-11T03:10:00.987Z,86.35
2022-12-11T03:12:37.902Z,86.13
2022-12-11T03:15:16.427Z,86.17
2022-12-11T03:17:55.020Z,86.18
2022-12-11T03:20:27.462Z,85.69
2022-12-11T03:23:22.638Z,86.06
2022-12-11T03:26:05.290Z,86.20
2022-12-11T03:28:52.863Z,85.89
2022-12-11T03:31:42.168Z,85.88
2022-12-11T03:34:36.603Z,86.05
2022-12-11T03:37:05.426Z,85.77
2022-12-11T03:39:37.646Z,85.88
2022-12-11T03:42:11.872Z,85.72
2022-12-11T03:45:10.041Z,86.13
2022-12-11T03:47:51.195Z,85.57
2022-12-11T03:50:32.308Z,85.79
2022-12-11T03:53:12.847Z,85.67
2022-12-11T03:55:54.164Z,85.90
2022-12-11T03:58:25.124Z,86.00
2022-12-11T04:00:55.905Z,85.73
2022-12-11T04:03:34.527Z,85.71
2022-12-11T04:06:09.218Z,85.78
2022-12-11T04:08:44.118Z,86.18
2022-12-11T04:11:34.561Z,86.99
2022-12-11T04:14:30.238Z,86.28
2022-12-11T04:17:04.018Z,86.25
2022-12-11T04:19:52.014Z,85.93
2022-12-11T04:22:47.560Z,86.58
2022-12-11T04:25:25.218Z,86.52
2022-12-11T04:27:53.269Z,86.32
2022-12-11T04:30:22.604Z,85.81
2022-12-11T04:32:51.541Z,85.88
2022-12-11T04:35:21.628Z,86.14
2022-12-11T04:37:54.326Z,85.86
2022-12-11T04:40:24.743Z,85.86
2022-12-11T04:42:56.291Z,85.99
2022-12-11T04:45:26.911Z,85.91
2022-12-11T04:47:59.762Z,86.56
2022-12-11T04:50:26.708Z,86.33
2022-12-11T04:52:55.208Z,86.27
2022-12-11T04:55:22.670Z,86.05
2022-12-11T04:57:51.824Z,86.45
2022-12-11T05:00:21.585Z,86.36
2022-12-11T05:02:52.227Z,87.07
2022-12-11T05:05:20.672Z,86.70
2022-12-11T05:07:49.361Z,87.34
2022-12-11T05:10:19.445Z,87.58
2022-12-11T05:12:51.252Z,87.09
2022-12-11T05:15:23.614Z,86.86
2022-12-11T05:17:57.870Z,86.53
2022-12-11T05:20:24.712Z,86.48
2022-12-11T05:22:59.807Z,86.88
2022-12-11T05:25:29.699Z,88.02
2022-12-11T05:28:06.562Z,88.54
2022-12-11T05:30:41.485Z,88.81
2022-12-11T05:33:10.751Z,88.99
2022-12-11T05:35:37.787Z,88.91
2022-12-11T05:38:08.588Z,89.29
2022-12-11T05:40:35.885Z,89.37
2022-12-11T05:43:07.640Z,88.69
2022-12-11T05:45:38.328Z,89.02
2022-12-11T05:48:15.322Z,88.67
2022-12-11T05:50:44.839Z,88.75
2022-12-11T05:53:20.344Z,88.54
2022-12-11T05:56:06.542Z,89.23
2022-12-11T05:58:36.531Z,89.05
2022-12-11T06:01:15.586Z,89.29
2022-12-11T06:03:50.103Z,89.62
2022-12-11T06:06:25.221Z,88.78
2022-12-11T06:08:56.904Z,88.37
2022-12-11T06:11:24.547Z,89.53
2022-12-11T06:13:51.436Z,89.94
2022-12-11T06:16:17.936Z,88.32
2022-12-11T06:18:45.012Z,87.62
2022-12-11T06:21:19.250Z,88.13
2022-12-11T06:23:46.863Z,87.04
2022-12-11T06:26:13.890Z,87.46
2022-12-11T06:28:40.432Z,88.12
2022-12-11T06:31:06.828Z,88.31
2022-12-11T06:33:33.565Z,88.90
2022-12-11T06:36:07.391Z,88.30
2022-12-11T06:38:33.905Z,88.13
2022-12-11T06:41:01.941Z,88.94
2022-12-11T06:43:28.281Z,88.53
2022-12-11T06:45:59.163Z,88.76
2022-12-11T06:48:28.548Z,89.04
2022-12-11T06:50:54.919Z,89.09
2022-12-11T06:53:21.367Z,89.05
2022-12-11T06:55:47.699Z,89.07
2022-12-11T06:58:14.077Z,88.53
2022-12-11T07:00:40.512Z,87.83
2022-12-11T07:03:06.944Z,88.26
2022-12-11T07:05:33.658Z,88.51
2022-12-11T07:08:01.197Z,88.98
2022-12-11T07:10:27.679Z,89.28
2022-12-11T07:12:54.459Z,89.06
2022-12-11T07:15:20.933Z,88.66
2022-12-11T07:17:47.262Z,89.44
2022-12-11T07:20:13.628Z,89.31
2022-12-11T07:22:46.062Z,89.11
2022-12-11T07:25:13.245Z,88.66
2022-12-11T07:27:39.903Z,88.82
2022-12-11T07:30:06.499Z,88.59
2022-12-11T07:32:32.943Z,88.53
2022-12-11T07:34:59.542Z,88.41
2022-12-11T07:37:26.080Z,88.54
2022-12-11T07:39:52.481Z,87.20
2022-12-11T07:42:18.840Z,87.61
2022-12-11T07:44:45.967Z,87.96
2022-12-11T07:47:12.367Z,88.09
2022-12-11T07:49:38.774Z,88.04
2022-12-11T07:52:05.152Z,88.29
2022-12-11T07:54:31.465Z,88.40
2022-12-11T07:56:57.895Z,88.00
2022-12-11T07:59:24.340Z,87.95
2022-12-11T08:01:50.727Z,88.37
2022-12-11T08:04:17.022Z,88.00
2022-12-11T08:06:43.635Z,87.73
2022-12-11T08:09:15.961Z,88.07
2022-12-11T08:11:45.473Z,87.91
2022-12-11T08:14:11.848Z,88.18
2022-12-11T08:16:40.186Z,87.77
2022-12-11T08:19:06.801Z,87.76
2022-12-11T08:21:33.120Z,88.15
2022-12-11T08:23:59.664Z,88.60
2022-12-11T08:26:28.128Z,88.56
2022-12-11T08:28:54.584Z,88.71
2022-12-11T08:31:21.018Z,88.31
2022-12-11T08:33:48.003Z,88.08
2022-12-11T08:36:15.533Z,88.20
2022-12-11T08:38:42.063Z,87.89
2022-12-11T08:41:28.690Z,87.80
2022-12-11T08:43:55.583Z,87.88
2022-12-11T08:46:26.215Z,87.99
2022-12-11T08:48:53.103Z,87.93
2022-12-11T08:51:24.260Z,87.89
2022-12-11T08:53:51.297Z,88.05
2022-12-11T08:56:20.696Z,87.39
2022-12-11T08:58:47.103Z,87.43
2022-12-11T09:01:15.242Z,87.21
2022-12-11T09:03:42.469Z,87.62
2022-12-11T09:06:13.843Z,87.54
2022-12-11T09:08:40.552Z,87.62
2022-12-11T09:11:08.565Z,87.59
2022-12-11T09:13:34.971Z,87.81
2022-12-11T09:16:03.414Z,87.56
2022-12-11T09:18:29.912Z,87.28
2022-12-11T09:21:06.871Z,87.10
2022-12-11T09:23:33.284Z,87.01
2022-12-11T09:25:59.679Z,87.36
2022-12-11T09:28:26.247Z,86.96
2022-12-11T09:30:52.760Z,87.09
2022-12-11T09:33:19.233Z,86.40
2022-12-11T09:35:45.580Z,85.86
2022-12-11T09:38:11.994Z,85.62
2022-12-11T09:40:42.863Z,85.70
2022-12-11T09:43:15.399Z,85.44
2022-12-11T09:45:41.850Z,85.53
2022-12-11T09:48:09.757Z,85.73
2022-12-11T09:50:36.265Z,85.83
2022-12-11T09:53:15.755Z,85.80
2022-12-11T09:56:20.430Z,85.63
2022-12-11T09:58:53.441Z,85.90
2022-12-11T10:01:38.266Z,85.95
2022-12-11T10:04:07.391Z,85.84
2022-12-11T10:06:40.860Z,85.66
2022-12-11T10:09:10.142Z,85.42
2022-12-11T10:11:42.547Z,85.76
2022-12-11T10:14:33.933Z,85.76
2022-12-11T10:17:12.447Z,85.12
2022-12-11T10:19:40.518Z,85.12
2022-12-11T10:22:12.962Z,85.30
2022-12-11T10:25:09.887Z,85.17
2022-12-11T10:27:33.972Z,85.42
2022-12-11T10:30:12.797Z,85.10
2022-12-11T10:32:59.417Z,85.26
2022-12-11T10:35:35.806Z,85.10
2022-12-11T10:38:11.773Z,85.26
2022-12-11T10:40:40.056Z,84.75
2022-12-11T10:43:06.396Z,84.50
2022-12-11T10:45:32.787Z,84.30
2022-12-11T10:48:03.740Z,83.76
2022-12-11T10:50:30.391Z,83.92
2022-12-11T10:52:57.290Z,83.88
2022-12-11T10:55:50.145Z,84.20
2022-12-11T10:58:21.255Z,83.92
2022-12-11T11:00:49.161Z,83.57
2022-12-11T11:03:23.660Z,83.70
2022-12-11T11:05:50.687Z,83.50
2022-12-11T11:08:19.439Z,83.34
2022-12-11T11:10:51.996Z,83.40
2022-12-11T11:13:20.584Z,83.35
2022-12-11T11:15:47.149Z,83.39
2022-12-11T11:18:22.252Z,83.07
2022-12-11T11:20:48.720Z,82.99
2022-12-11T11:23:16.340Z,83.13
2022-12-11T11:25:54.438Z,83.11
2022-12-11T11:28:25.977Z,83.12
2022-12-11T11:31:12.222Z,82.82
2022-12-11T11:33:47.131Z,83.17
2022-12-11T11:36:21.738Z,82.88
2022-12-11T11:39:08.369Z,82.77
2022-12-11T11:41:34.737Z,82.72
2022-12-11T11:44:04.757Z,82.24
2022-12-11T11:46:52.868Z,81.99
2022-12-11T11:49:36.529Z,82.14
2022-12-11T11:52:15.836Z,82.45
2022-12-11T11:54:56.940Z,82.13
2022-12-11T11:57:32.433Z,81.94
2022-12-11T12:00:09.604Z,81.95
2022-12-11T12:02:36.607Z,82.33
2022-12-11T12:05:03.635Z,82.26
2022-12-11T12:07:41.516Z,81.89
2022-12-11T12:10:21.485Z,81.79
2022-12-11T12:12:57.919Z,82.15
2022-12-11T12:15:34.435Z,82.15
2022-12-11T12:18:33.699Z,82.08
2022-12-11T12:21:02.923Z,81.75
2022-12-11T12:23:43.384Z,81.56
2022-12-11T12:26:28.007Z,81.47
2022-12-11T12:29:00.382Z,81.36
2022-12-11T12:31:29.845Z,81.25
2022-12-11T12:34:05.283Z,81.69
2022-12-11T12:36:49.979Z,81.84
2022-12-11T12:39:19.490Z,81.85
2022-12-11T12:42:07.695Z,81.73
2022-12-11T12:44:42.305Z,81.62
2022-12-11T12:47:12.867Z,81.47
2022-12-11T12:49:39.298Z,81.69
2022-12-11T12:52:07.160Z,81.29
2022-12-11T12:54:35.220Z,81.21
2022-12-11T12:57:03.224Z,80.94
2022-12-11T12:59:29.631Z,81.28
2022-12-11T13:01:58.472Z,81.43
2022-12-11T13:04:54.379Z,81.69
2022-12-11T13:07:24.513Z,81.50
2022-12-11T13:10:16.972Z,81.54
2022-12-11T13:12:44.751Z,81.51
2022-12-11T13:15:23.966Z,81.21
2022-12-11T13:17:51.340Z,81.21
2022-12-11T13:20:18.974Z,81.35
2022-12-11T13:23:11.424Z,80.95
2022-12-11T13:25:48.460Z,80.73
2022-12-11T13:28:23.036Z,80.94
2022-12-11T13:31:07.491Z,81.02
2022-12-11T13:33:38.935Z,81.38
2022-12-11T13:36:14.950Z,81.11
2022-12-11T13:38:48.495Z,80.95
2022-12-11T13:41:14.853Z,81.06
2022-12-11T13:43:42.201Z,80.93
2022-12-11T13:46:11.229Z,80.77
2022-12-11T13:49:00.685Z,80.56
2022-12-11T13:51:29.050Z,80.97
2022-12-11T13:54:02.636Z,80.68
2022-12-11T13:56:29.028Z,80.88
2022-12-11T13:58:55.342Z,81.01
2022-12-11T14:01:23.187Z,80.97
2022-12-11T14:03:52.844Z,80.95
2022-12-11T14:06:19.382Z,81.00
2022-12-11T14:08:47.953Z,80.51
2022-12-11T14:11:20.767Z,80.17
2022-12-11T14:13:47.489Z,80.88
2022-12-11T14:16:19.160Z,81.00
2022-12-11T14:18:45.727Z,81.17
2022-12-11T14:21:25.384Z,81.28
2022-12-11T14:23:56.005Z,80.67
2022-12-11T14:26:24.085Z,81.11
2022-12-11T14:28:50.971Z,80.64
2022-12-11T14:31:23.304Z,80.96
2022-12-11T14:33:53.679Z,81.43
2022-12-11T14:36:20.624Z,81.35
2022-12-11T14:38:54.055Z,81.43
2022-12-11T14:41:25.063Z,80.91
2022-12-11T14:43:53.719Z,81.10
2022-12-11T14:46:32.908Z,80.81
2022-12-11T14:49:01.735Z,80.80
2022-12-11T14:51:30.248Z,80.92
2022-12-11T14:53:56.731Z,81.00
2022-12-11T14:56:24.982Z,80.85
2022-12-11T14:58:54.383Z,81.49
2022-12-11T15:01:22.686Z,81.58
2022-12-11T15:03:49.189Z,81.61
2022-12-11T15:06:26.103Z,81.60
2022-12-11T15:08:52.791Z,82.13
2022-12-11T15:11:19.678Z,81.85
2022-12-11T15:13:49.083Z,81.98
2022-12-11T15:16:16.045Z,82.46
2022-12-11T15:18:42.655Z,82.44
2022-12-11T15:21:11.248Z,81.49
2022-12-11T15:23:49.419Z,80.48
2022-12-11T15:26:15.778Z,80.01
2022-12-11T15:28:42.158Z,80.95
2022-12-11T15:31:24.142Z,81.25
2022-12-11T15:33:50.616Z,82.71
2022-12-11T15:36:30.959Z,82.35
2022-12-11T15:38:57.743Z,82.01
2022-12-11T15:41:27.047Z,82.15
2022-12-11T15:43:58.568Z,82.61
2022-12-11T15:46:25.449Z,82.53
2022-12-11T15:48:51.839Z,83.43
2022-12-11T15:51:18.302Z,83.33
2022-12-11T15:53:44.661Z,83.39
2022-12-11T15:56:17.329Z,83.35
2022-12-11T15:58:44.681Z,82.87
2022-12-11T16:01:12.117Z,83.09
2022-12-11T16:03:38.496Z,83.29
2022-12-11T16:06:04.935Z,83.42
2022-12-11T16:08:31.323Z,83.21
2022-12-11T16:10:57.789Z,83.06
2022-12-11T16:13:25.073Z,83.55
2022-12-11T16:15:52.175Z,82.99
2022-12-11T16:18:20.175Z,82.99
2022-12-11T16:20:47.169Z,83.16
2022-12-11T16:23:14.695Z,82.25
2022-12-11T16:25:42.050Z,82.55
2022-12-11T16:28:08.820Z,82.67
2022-12-11T16:30:36.413Z,82.46
2022-12-11T16:33:10.289Z,82.42
2022-12-11T16:35:38.642Z,82.56
2022-12-11T16:38:05.026Z,82.49
2022-12-11T16:40:31.486Z,82.39
2022-12-11T16:42:57.915Z,82.68
2022-12-11T16:45:25.580Z,82.12
2022-12-11T16:47:52.543Z,82.08
2022-12-11T16:50:19.087Z,82.02
2022-12-11T16:52:45.695Z,82.05
2022-12-11T16:55:13.097Z,82.25
2022-12-11T16:57:39.637Z,82.02
2022-12-11T17:00:07.047Z,82.27
2022-12-11T17:02:33.491Z,82.52
2022-12-11T17:04:59.857Z,82.92
2022-12-11T17:07:26.335Z,82.63
2022-12-11T17:09:52.761Z,82.55
2022-12-11T17:12:23.060Z,82.30
2022-12-11T17:14:49.411Z,82.58
2022-12-11T17:17:15.817Z,82.62
2022-12-11T17:19:42.235Z,82.40
2022-12-11T17:22:08.603Z,82.73
2022-12-11T17:24:34.916Z,82.47
2022-12-11T17:27:01.328Z,82.86
2022-12-11T17:29:27.752Z,82.44
2022-12-11T17:31:54.099Z,82.32
2022-12-11T17:34:20.467Z,82.54
2022-12-11T17:36:46.847Z,82.52
2022-12-11T17:39:13.266Z,82.78
2022-12-11T17:41:39.644Z,82.85
2022-12-11T17:44:06.102Z,82.51
2022-12-11T17:46:33.368Z,82.66
2022-12-11T17:49:01.749Z,82.49
2022-12-11T17:51:28.140Z,82.45
2022-12-11T17:53:55.630Z,82.63
2022-12-11T17:56:22.224Z,82.57
2022-12-11T17:58:48.541Z,82.26
2022-12-11T18:01:15.003Z,82.40
2022-12-11T18:03:41.882Z,82.29
2022-12-11T18:06:10.488Z,82.18
2022-12-11T18:08:37.477Z,82.55
2022-12-11T18:11:08.481Z,82.39
2022-12-11T18:13:35.708Z,82.32
2022-12-11T18:16:03.499Z,81.26
2022-12-11T18:18:30.434Z,80.96
2022-12-11T18:20:56.899Z,80.55
2022-12-11T18:23:23.728Z,80.60
2022-12-11T18:26:04.608Z,80.36
2022-12-11T18:28:40.651Z,80.21
2022-12-11T18:31:07.754Z,80.10
2022-12-11T18:33:35.775Z,80.16
2022-12-11T18:36:02.178Z,80.70
2022-12-11T18:38:52.115Z,80.58
2022-12-11T18:41:19.416Z,80.67
2022-12-11T18:43:46.545Z,80.35
2022-12-11T18:46:15.452Z,80.53
2022-12-11T18:48:42.930Z,80.72
2022-12-11T18:51:12.507Z,80.57
2022-12-11T18:53:39.858Z,81.43
2022-12-11T18:56:10.988Z,81.03
2022-12-11T18:58:37.885Z,80.84
2022-12-11T19:01:09.686Z,80.90
2022-12-11T19:03:36.882Z,81.01
2022-12-11T19:06:14.458Z,80.67
2022-12-11T19:08:41.852Z,80.37
2022-12-11T19:11:13.910Z,80.65
2022-12-11T19:13:40.848Z,80.34
2022-12-11T19:16:07.726Z,80.43
2022-12-11T19:18:34.707Z,80.26
2022-12-11T19:21:08.558Z,80.44
2022-12-11T19:23:35.729Z,80.29
2022-12-11T19:26:02.414Z,80.47
2022-12-11T19:28:28.961Z,80.55
2022-12-11T19:30:55.441Z,80.37
2022-12-11T19:33:21.924Z,80.58
2022-12-11T19:35:48.266Z,80.19
2022-12-11T19:38:14.627Z,80.30
2022-12-11T19:40:44.657Z,80.40
2022-12-11T19:43:11.526Z,80.48
2022-12-11T19:45:38.013Z,80.53
2022-12-11T19:48:04.609Z,80.44
2022-12-11T19:50:31.648Z,80.35
2022-12-11T19:52:58.100Z,80.69
2022-12-11T19:55:24.428Z,80.55
2022-12-11T19:57:52.020Z,81.27
2022-12-11T20:00:18.832Z,81.04
2022-12-11T20:02:45.235Z,81.43
2022-12-11T20:05:11.985Z,81.23
2022-12-11T20:07:40.647Z,80.61
2022-12-11T20:10:09.612Z,80.20
2022-12-11T20:12:35.944Z,80.49
2022-12-11T20:15:04.031Z,80.53
2022-12-11T20:17:31.335Z,80.50
2022-12-11T20:19:57.737Z,80.21
2022-12-11T20:22:24.110Z,80.48
2022-12-11T20:24:50.681Z,80.40
2022-12-11T20:27:17.045Z,81.07
2022-12-11T20:29:43.369Z,80.90
2022-12-11T20:32:11.552Z,80.51
2022-12-11T20:34:38.440Z,80.95
2022-12-11T20:37:05.232Z,80.52
2022-12-11T20:39:32.042Z,80.65
2022-12-11T20:41:58.463Z,80.45
2022-12-11T20:44:24.847Z,80.29
2022-12-11T20:46:51.592Z,80.34
2022-12-11T20:49:18.026Z,80.47
2022-12-11T20:51:44.407Z,80.28
2022-12-11T20:54:10.832Z,80.27
2022-12-11T20:56:37.629Z,80.25
2022-12-11T20:59:04.005Z,80.41
2022-12-11T21:01:31.372Z,80.36
2022-12-11T21:03:58.532Z,80.33
2022-12-11T21:06:26.902Z,80.44
2022-12-11T21:09:05.473Z,80.31
2022-12-11T21:11:38.132Z,80.31
2022-12-11T21:14:08.423Z,80.11
2022-12-11T21:16:40.550Z,80.15
2022-12-11T21:19:17.046Z,79.89
2022-12-11T21:21:54.187Z,80.66
2022-12-11T21:24:27.987Z,80.50
2022-12-11T21:27:00.529Z,80.36
2022-12-11T21:29:27.779Z,79.92
2022-12-11T21:31:54.264Z,80.51
2022-12-11T21:34:25.293Z,80.78
2022-12-11T21:36:56.401Z,80.79
2022-12-11T21:39:23.888Z,80.78
2022-12-11T21:41:50.257Z,80.73
2022-12-11T21:47:03.272Z,80.69
2022-12-11T21:49:29.658Z,80.63
2022-12-11T21:51:56.134Z,80.67
2022-12-11T21:54:22.546Z,80.54
2022-12-11T21:56:48.947Z,81.17
2022-12-11T21:59:15.512Z,80.82
2022-12-11T22:01:46.665Z,80.41
2022-12-11T22:04:13.635Z,80.46
2022-12-11T22:06:43.497Z,80.45
2022-12-11T22:09:12.399Z,80.25
2022-12-11T22:11:39.157Z,80.36
2022-12-11T22:14:06.889Z,80.65
2022-12-11T22:16:34.086Z,81.07
2022-12-11T22:19:00.812Z,80.45
2022-12-11T22:21:32.356Z,80.49
2022-12-11T22:24:07.091Z,80.58
2022-12-11T22:26:39.700Z,80.04
2022-12-11T22:29:20.201Z,80.08
2022-12-11T22:31:56.561Z,80.11
2022-12-11T22:34:42.896Z,79.98
2022-12-11T22:37:24.311Z,80.00
2022-12-11T22:39:52.363Z,79.56
2022-12-11T22:42:18.818Z,79.72
2022-12-11T22:44:45.235Z,80.24
2022-12-11T22:47:11.752Z,80.24
2022-12-11T22:49:38.146Z,80.38
2022-12-11T22:52:04.677Z,80.27
2022-12-11T22:54:31.176Z,80.29
2022-12-11T22:56:57.606Z,80.36
2022-12-11T22:59:24.073Z,80.88
2022-12-11T23:01:50.405Z,80.85
2022-12-11T23:04:17.374Z,80.58
2022-12-11T23:06:43.748Z,80.61
2022-12-11T23:09:10.544Z,80.22
2022-12-11T23:11:38.331Z,80.21
2022-12-11T23:14:05.444Z,80.28
2022-12-11T23:16:32.920Z,80.47
2022-12-11T23:18:59.362Z,80.09
2022-12-11T23:21:26.768Z,80.50
2022-12-11T23:23:53.696Z,80.54
2022-12-11T23:26:20.655Z,80.24
2022-12-11T23:28:47.524Z,80.45
2022-12-11T23:31:14.585Z,80.45
2022-12-11T23:33:40.998Z,80.12
2022-12-11T23:36:07.826Z,80.39
2022-12-11T23:38:34.487Z,80.35
2022-12-11T23:41:02.184Z,80.22
2022-12-11T23:43:28.639Z,79.96
2022-12-11T23:45:55.886Z,80.01
2022-12-11T23:48:23.720Z,80.11
2022-12-11T23:50:50.729Z,79.94
2022-12-11T23:53:20.932Z,80.14
2022-12-11T23:55:49.871Z,80.37
2022-12-11T23:58:40.201Z,80.07
